sensor_id;sensor_type;location;lat;lon;timestamp;P1;durP1;ratioP1;P2;durP2;ratioP2
11984;SDS011;6052;53.246;10.368;2023-08-08T00:00:18;2.70;;;1.00;;
11984;SDS011;6052;53.246;10.368;2023-08-08T00:02:48;1.52;;;0.85;;
11984;SDS011;6052;53.246;10.368;2023-08-08T00:05:17;1.40;;;0.90;;
11984;SDS011;6052;53.246;10.368;2023-08-08T00:07:47;3.75;;;1.13;;
11984;SDS011;6052;53.246;10.368;2023-08-08T00:10:17;3.13;;;1.15;;
11984;SDS011;6052;53.246;10.368;2023-08-08T00:12:46;1.30;;;0.82;;
11984;SDS011;6052;53.246;10.368;2023-08-08T00:15:19;0.98;;;0.80;;
11984;SDS011;6052;53.246;10.368;2023-08-08T00:17:48;5.05;;;1.33;;
11984;SDS011;6052;53.246;10.368;2023-08-08T00:20:18;1.98;;;1.20;;
11984;SDS011;6052;53.246;10.368;2023-08-08T00:22:47;2.95;;;1.13;;
11984;SDS011;6052;53.246;10.368;2023-08-08T00:25:17;1.10;;;1.00;;
11984;SDS011;6052;53.246;10.368;2023-08-08T00:27:46;1.95;;;1.17;;
11984;SDS011;6052;53.246;10.368;2023-08-08T00:30:15;2.45;;;1.10;;
11984;SDS011;6052;53.246;10.368;2023-08-08T00:32:47;5.13;;;1.20;;
11984;SDS011;6052;53.246;10.368;2023-08-08T00:35:17;2.88;;;1.00;;
11984;SDS011;6052;53.246;10.368;2023-08-08T00:37:46;1.23;;;1.10;;
11984;SDS011;6052;53.246;10.368;2023-08-08T00:40:17;2.75;;;1.10;;
11984;SDS011;6052;53.246;10.368;2023-08-08T00:42:46;1.88;;;1.00;;
11984;SDS011;6052;53.246;10.368;2023-08-08T00:45:18;2.40;;;1.00;;
11984;SDS011;6052;53.246;10.368;2023-08-08T00:47:48;4.53;;;1.17;;
11984;SDS011;6052;53.246;10.368;2023-08-08T00:50:18;1.63;;;1.13;;
11984;SDS011;6052;53.246;10.368;2023-08-08T00:52:47;3.70;;;1.38;;
11984;SDS011;6052;53.246;10.368;2023-08-08T00:55:17;2.40;;;1.25;;
11984;SDS011;6052;53.246;10.368;2023-08-08T00:57:47;1.42;;;1.15;;
11984;SDS011;6052;53.246;10.368;2023-08-08T01:00:20;1.48;;;1.17;;
11984;SDS011;6052;53.246;10.368;2023-08-08T01:02:58;3.42;;;2.25;;
11984;SDS011;6052;53.246;10.368;2023-08-08T01:05:28;1.88;;;1.08;;
11984;SDS011;6052;53.246;10.368;2023-08-08T01:08:04;3.58;;;1.00;;
11984;SDS011;6052;53.246;10.368;2023-08-08T01:10:36;3.20;;;0.80;;
11984;SDS011;6052;53.246;10.368;2023-08-08T01:13:09;3.00;;;1.25;;
11984;SDS011;6052;53.246;10.368;2023-08-08T01:15:45;1.90;;;1.05;;
11984;SDS011;6052;53.246;10.368;2023-08-08T01:18:15;2.05;;;1.15;;
11984;SDS011;6052;53.246;10.368;2023-08-08T01:20:45;1.20;;;1.10;;
11984;SDS011;6052;53.246;10.368;2023-08-08T01:23:17;2.95;;;1.20;;
11984;SDS011;6052;53.246;10.368;2023-08-08T01:25:55;1.33;;;0.95;;
11984;SDS011;6052;53.246;10.368;2023-08-08T01:28:25;2.58;;;1.30;;
11984;SDS011;6052;53.246;10.368;2023-08-08T01:30:55;2.13;;;1.05;;
11984;SDS011;6052;53.246;10.368;2023-08-08T01:33:25;4.03;;;1.15;;
11984;SDS011;6052;53.246;10.368;2023-08-08T01:35:58;1.40;;;0.90;;
11984;SDS011;6052;53.246;10.368;2023-08-08T01:38:33;2.15;;;1.00;;
11984;SDS011;6052;53.246;10.368;2023-08-08T01:41:10;1.10;;;0.98;;
11984;SDS011;6052;53.246;10.368;2023-08-08T01:43:40;1.40;;;1.20;;
11984;SDS011;6052;53.246;10.368;2023-08-08T01:46:10;2.40;;;1.10;;
11984;SDS011;6052;53.246;10.368;2023-08-08T01:48:40;3.00;;;1.30;;
11984;SDS011;6052;53.246;10.368;2023-08-08T01:51:13;2.90;;;1.30;;
11984;SDS011;6052;53.246;10.368;2023-08-08T01:53:43;1.00;;;0.90;;
11984;SDS011;6052;53.246;10.368;2023-08-08T01:56:15;1.60;;;0.82;;
11984;SDS011;6052;53.246;10.368;2023-08-08T01:58:44;4.50;;;1.52;;
11984;SDS011;6052;53.246;10.368;2023-08-08T02:01:17;1.45;;;1.00;;
11984;SDS011;6052;53.246;10.368;2023-08-08T02:03:46;2.53;;;1.02;;
11984;SDS011;6052;53.246;10.368;2023-08-08T02:06:16;0.80;;;0.80;;
11984;SDS011;6052;53.246;10.368;2023-08-08T02:08:45;1.55;;;1.15;;
11984;SDS011;6052;53.246;10.368;2023-08-08T02:11:17;1.45;;;1.00;;
11984;SDS011;6052;53.246;10.368;2023-08-08T02:13:48;1.13;;;1.02;;
11984;SDS011;6052;53.246;10.368;2023-08-08T02:16:17;2.05;;;1.10;;
11984;SDS011;6052;53.246;10.368;2023-08-08T02:18:46;2.20;;;1.00;;
11984;SDS011;6052;53.246;10.368;2023-08-08T02:21:16;3.42;;;1.02;;
11984;SDS011;6052;53.246;10.368;2023-08-08T02:23:45;1.42;;;0.90;;
11984;SDS011;6052;53.246;10.368;2023-08-08T02:26:17;2.13;;;1.35;;
11984;SDS011;6052;53.246;10.368;2023-08-08T02:28:47;4.07;;;1.23;;
11984;SDS011;6052;53.246;10.368;2023-08-08T02:31:16;1.25;;;0.98;;
11984;SDS011;6052;53.246;10.368;2023-08-08T02:33:47;2.05;;;1.00;;
11984;SDS011;6052;53.246;10.368;2023-08-08T02:36:17;3.63;;;1.40;;
11984;SDS011;6052;53.246;10.368;2023-08-08T02:38:47;4.22;;;0.90;;
11984;SDS011;6052;53.246;10.368;2023-08-08T02:41:22;3.00;;;1.15;;
11984;SDS011;6052;53.246;10.368;2023-08-08T02:43:51;2.65;;;1.25;;
11984;SDS011;6052;53.246;10.368;2023-08-08T02:46:21;1.55;;;1.10;;
11984;SDS011;6052;53.246;10.368;2023-08-08T02:48:50;2.97;;;1.17;;
11984;SDS011;6052;53.246;10.368;2023-08-08T02:51:20;3.15;;;0.95;;
11984;SDS011;6052;53.246;10.368;2023-08-08T02:53:49;3.08;;;1.10;;
11984;SDS011;6052;53.246;10.368;2023-08-08T02:56:18;2.90;;;1.10;;
11984;SDS011;6052;53.246;10.368;2023-08-08T02:58:50;3.30;;;1.20;;
11984;SDS011;6052;53.246;10.368;2023-08-08T03:01:20;1.50;;;0.88;;
11984;SDS011;6052;53.246;10.368;2023-08-08T03:03:50;4.90;;;1.20;;
11984;SDS011;6052;53.246;10.368;2023-08-08T03:06:19;1.40;;;1.20;;
11984;SDS011;6052;53.246;10.368;2023-08-08T03:08:48;2.83;;;1.08;;
11984;SDS011;6052;53.246;10.368;2023-08-08T03:11:18;1.73;;;1.20;;
11984;SDS011;6052;53.246;10.368;2023-08-08T03:13:47;5.07;;;1.27;;
11984;SDS011;6052;53.246;10.368;2023-08-08T03:16:19;2.40;;;0.95;;
11984;SDS011;6052;53.246;10.368;2023-08-08T03:18:49;3.88;;;1.48;;
11984;SDS011;6052;53.246;10.368;2023-08-08T03:21:19;3.22;;;1.33;;
11984;SDS011;6052;53.246;10.368;2023-08-08T03:23:48;1.63;;;1.35;;
11984;SDS011;6052;53.246;10.368;2023-08-08T03:26:17;1.98;;;1.25;;
11984;SDS011;6052;53.246;10.368;2023-08-08T03:28:47;2.55;;;1.30;;
11984;SDS011;6052;53.246;10.368;2023-08-08T03:31:22;3.20;;;1.95;;
11984;SDS011;6052;53.246;10.368;2023-08-08T03:33:52;6.72;;;1.10;;
11984;SDS011;6052;53.246;10.368;2023-08-08T03:36:22;2.17;;;1.10;;
11984;SDS011;6052;53.246;10.368;2023-08-08T03:38:51;2.35;;;1.23;;
11984;SDS011;6052;53.246;10.368;2023-08-08T03:41:21;5.25;;;1.25;;
11984;SDS011;6052;53.246;10.368;2023-08-08T03:43:50;1.55;;;1.15;;
11984;SDS011;6052;53.246;10.368;2023-08-08T03:46:22;1.00;;;0.90;;
11984;SDS011;6052;53.246;10.368;2023-08-08T03:48:52;1.23;;;1.08;;
11984;SDS011;6052;53.246;10.368;2023-08-08T03:51:21;2.17;;;1.33;;
11984;SDS011;6052;53.246;10.368;2023-08-08T03:53:50;1.40;;;1.00;;
11984;SDS011;6052;53.246;10.368;2023-08-08T03:56:20;4.53;;;1.30;;
11984;SDS011;6052;53.246;10.368;2023-08-08T03:58:49;1.60;;;1.20;;
11984;SDS011;6052;53.246;10.368;2023-08-08T04:01:21;2.25;;;1.30;;
11984;SDS011;6052;53.246;10.368;2023-08-08T04:03:51;1.10;;;1.00;;
11984;SDS011;6052;53.246;10.368;2023-08-08T04:06:21;1.08;;;0.98;;
11984;SDS011;6052;53.246;10.368;2023-08-08T04:08:50;4.00;;;1.40;;
11984;SDS011;6052;53.246;10.368;2023-08-08T04:11:20;2.25;;;1.13;;
11984;SDS011;6052;53.246;10.368;2023-08-08T04:13:49;1.52;;;1.05;;
11984;SDS011;6052;53.246;10.368;2023-08-08T04:16:18;1.77;;;1.30;;
11984;SDS011;6052;53.246;10.368;2023-08-08T04:18:52;3.20;;;1.33;;
11984;SDS011;6052;53.246;10.368;2023-08-08T04:21:21;2.22;;;1.30;;
11984;SDS011;6052;53.246;10.368;2023-08-08T04:23:52;1.20;;;1.10;;
11984;SDS011;6052;53.246;10.368;2023-08-08T04:26:22;1.20;;;1.10;;
11984;SDS011;6052;53.246;10.368;2023-08-08T04:28:51;1.20;;;1.10;;
11984;SDS011;6052;53.246;10.368;2023-08-08T04:31:24;1.75;;;1.17;;
11984;SDS011;6052;53.246;10.368;2023-08-08T04:33:55;2.72;;;1.23;;
11984;SDS011;6052;53.246;10.368;2023-08-08T04:36:29;2.30;;;1.00;;
11984;SDS011;6052;53.246;10.368;2023-08-08T04:38:59;1.73;;;1.10;;
11984;SDS011;6052;53.246;10.368;2023-08-08T04:41:28;1.70;;;1.10;;
11984;SDS011;6052;53.246;10.368;2023-08-08T04:43:58;1.20;;;1.10;;
11984;SDS011;6052;53.246;10.368;2023-08-08T04:46:30;3.35;;;1.10;;
11984;SDS011;6052;53.246;10.368;2023-08-08T04:48:59;2.83;;;1.40;;
11984;SDS011;6052;53.246;10.368;2023-08-08T04:51:29;2.67;;;1.13;;
11984;SDS011;6052;53.246;10.368;2023-08-08T04:53:58;2.35;;;1.20;;
11984;SDS011;6052;53.246;10.368;2023-08-08T04:56:27;1.55;;;1.05;;
11984;SDS011;6052;53.246;10.368;2023-08-08T04:58:57;1.92;;;1.00;;
11984;SDS011;6052;53.246;10.368;2023-08-08T05:01:26;1.63;;;1.17;;
11984;SDS011;6052;53.246;10.368;2023-08-08T05:03:58;2.88;;;1.20;;
11984;SDS011;6052;53.246;10.368;2023-08-08T05:06:28;2.85;;;1.15;;
11984;SDS011;6052;53.246;10.368;2023-08-08T05:08:57;3.20;;;1.30;;
11984;SDS011;6052;53.246;10.368;2023-08-08T05:11:27;1.85;;;1.42;;
11984;SDS011;6052;53.246;10.368;2023-08-08T05:13:56;1.58;;;1.20;;
11984;SDS011;6052;53.246;10.368;2023-08-08T05:16:25;2.35;;;1.05;;
11984;SDS011;6052;53.246;10.368;2023-08-08T05:18:55;1.60;;;1.30;;
11984;SDS011;6052;53.246;10.368;2023-08-08T05:21:27;1.42;;;1.15;;
11984;SDS011;6052;53.246;10.368;2023-08-08T05:23:56;1.95;;;0.95;;
11984;SDS011;6052;53.246;10.368;2023-08-08T05:26:26;2.05;;;1.30;;
11984;SDS011;6052;53.246;10.368;2023-08-08T05:28:56;1.55;;;0.90;;
11984;SDS011;6052;53.246;10.368;2023-08-08T05:31:25;1.65;;;1.20;;
11984;SDS011;6052;53.246;10.368;2023-08-08T05:33:54;1.60;;;1.05;;
11984;SDS011;6052;53.246;10.368;2023-08-08T05:36:26;1.58;;;1.00;;
11984;SDS011;6052;53.246;10.368;2023-08-08T05:38:56;3.38;;;1.38;;
11984;SDS011;6052;53.246;10.368;2023-08-08T05:41:25;1.08;;;0.98;;
11984;SDS011;6052;53.246;10.368;2023-08-08T05:43:54;1.02;;;0.90;;
11984;SDS011;6052;53.246;10.368;2023-08-08T05:46:24;1.75;;;1.17;;
11984;SDS011;6052;53.246;10.368;2023-08-08T05:48:53;1.10;;;1.00;;
11984;SDS011;6052;53.246;10.368;2023-08-08T05:51:23;2.60;;;1.10;;
11984;SDS011;6052;53.246;10.368;2023-08-08T05:53:55;2.05;;;1.08;;
11984;SDS011;6052;53.246;10.368;2023-08-08T05:56:27;2.97;;;1.23;;
11984;SDS011;6052;53.246;10.368;2023-08-08T05:58:57;1.17;;;0.95;;
11984;SDS011;6052;53.246;10.368;2023-08-08T06:01:26;1.50;;;1.30;;
11984;SDS011;6052;53.246;10.368;2023-08-08T06:03:56;1.27;;;1.13;;
11984;SDS011;6052;53.246;10.368;2023-08-08T06:06:26;1.27;;;1.17;;
11984;SDS011;6052;53.246;10.368;2023-08-08T06:08:58;2.22;;;1.38;;
11984;SDS011;6052;53.246;10.368;2023-08-08T06:11:29;1.67;;;1.58;;
11984;SDS011;6052;53.246;10.368;2023-08-08T06:13:58;1.65;;;1.50;;
11984;SDS011;6052;53.246;10.368;2023-08-08T06:16:28;2.83;;;1.60;;
11984;SDS011;6052;53.246;10.368;2023-08-08T06:18:57;1.75;;;1.50;;
11984;SDS011;6052;53.246;10.368;2023-08-08T06:21:27;2.42;;;1.50;;
11984;SDS011;6052;53.246;10.368;2023-08-08T06:23:59;1.77;;;1.48;;
11984;SDS011;6052;53.246;10.368;2023-08-08T06:26:29;2.10;;;1.38;;
11984;SDS011;6052;53.246;10.368;2023-08-08T06:28:58;2.08;;;1.58;;
11984;SDS011;6052;53.246;10.368;2023-08-08T06:31:28;2.92;;;1.50;;
11984;SDS011;6052;53.246;10.368;2023-08-08T06:33:58;3.97;;;1.90;;
11984;SDS011;6052;53.246;10.368;2023-08-08T06:36:27;1.70;;;1.30;;
11984;SDS011;6052;53.246;10.368;2023-08-08T06:39:00;2.38;;;1.48;;
11984;SDS011;6052;53.246;10.368;2023-08-08T06:41:29;2.58;;;1.33;;
11984;SDS011;6052;53.246;10.368;2023-08-08T06:43:59;1.15;;;1.02;;
11984;SDS011;6052;53.246;10.368;2023-08-08T06:46:28;1.88;;;1.33;;
11984;SDS011;6052;53.246;10.368;2023-08-08T06:48:57;1.38;;;1.00;;
11984;SDS011;6052;53.246;10.368;2023-08-08T06:51:27;2.08;;;1.10;;
11984;SDS011;6052;53.246;10.368;2023-08-08T06:53:59;2.35;;;1.30;;
11984;SDS011;6052;53.246;10.368;2023-08-08T06:56:29;1.30;;;1.20;;
11984;SDS011;6052;53.246;10.368;2023-08-08T06:58:58;1.27;;;1.02;;
11984;SDS011;6052;53.246;10.368;2023-08-08T07:01:28;1.33;;;1.10;;
11984;SDS011;6052;53.246;10.368;2023-08-08T07:03:57;1.75;;;1.20;;
11984;SDS011;6052;53.246;10.368;2023-08-08T07:06:27;1.70;;;1.40;;
11984;SDS011;6052;53.246;10.368;2023-08-08T07:08:56;1.77;;;1.27;;
11984;SDS011;6052;53.246;10.368;2023-08-08T07:11:28;1.48;;;1.17;;
11984;SDS011;6052;53.246;10.368;2023-08-08T07:13:58;2.63;;;1.48;;
11984;SDS011;6052;53.246;10.368;2023-08-08T07:16:27;2.47;;;1.40;;
11984;SDS011;6052;53.246;10.368;2023-08-08T07:18:56;1.40;;;1.30;;
11984;SDS011;6052;53.246;10.368;2023-08-08T07:21:26;1.35;;;1.08;;
11984;SDS011;6052;53.246;10.368;2023-08-08T07:23:55;2.10;;;1.20;;
11984;SDS011;6052;53.246;10.368;2023-08-08T07:26:27;1.80;;;1.33;;
11984;SDS011;6052;53.246;10.368;2023-08-08T07:28:57;1.92;;;1.30;;
11984;SDS011;6052;53.246;10.368;2023-08-08T07:31:26;0.80;;;0.80;;
11984;SDS011;6052;53.246;10.368;2023-08-08T07:33:56;3.40;;;1.20;;
11984;SDS011;6052;53.246;10.368;2023-08-08T07:36:25;2.25;;;1.17;;
11984;SDS011;6052;53.246;10.368;2023-08-08T07:38:55;2.80;;;1.30;;
11984;SDS011;6052;53.246;10.368;2023-08-08T07:41:29;3.33;;;1.38;;
11984;SDS011;6052;53.246;10.368;2023-08-08T07:43:59;3.47;;;1.13;;
11984;SDS011;6052;53.246;10.368;2023-08-08T07:46:28;2.72;;;1.27;;
11984;SDS011;6052;53.246;10.368;2023-08-08T07:48:59;2.10;;;1.20;;
11984;SDS011;6052;53.246;10.368;2023-08-08T07:51:30;4.97;;;1.38;;
11984;SDS011;6052;53.246;10.368;2023-08-08T07:53:59;1.38;;;0.98;;
11984;SDS011;6052;53.246;10.368;2023-08-08T07:59:06;1.85;;;1.08;;
11984;SDS011;6052;53.246;10.368;2023-08-08T08:01:39;3.30;;;1.30;;
11984;SDS011;6052;53.246;10.368;2023-08-08T08:04:09;2.00;;;1.08;;
11984;SDS011;6052;53.246;10.368;2023-08-08T08:06:39;5.35;;;1.27;;
11984;SDS011;6052;53.246;10.368;2023-08-08T08:09:10;1.73;;;0.90;;
11984;SDS011;6052;53.246;10.368;2023-08-08T08:11:42;1.95;;;0.98;;
11984;SDS011;6052;53.246;10.368;2023-08-08T08:14:12;2.33;;;1.20;;
11984;SDS011;6052;53.246;10.368;2023-08-08T08:16:41;2.85;;;1.40;;
11984;SDS011;6052;53.246;10.368;2023-08-08T08:19:11;2.75;;;1.23;;
11984;SDS011;6052;53.246;10.368;2023-08-08T08:21:40;1.00;;;0.90;;
11984;SDS011;6052;53.246;10.368;2023-08-08T08:24:10;3.28;;;1.23;;
11984;SDS011;6052;53.246;10.368;2023-08-08T08:26:39;2.22;;;1.20;;
11984;SDS011;6052;53.246;10.368;2023-08-08T08:29:11;4.00;;;1.08;;
11984;SDS011;6052;53.246;10.368;2023-08-08T08:31:40;2.95;;;1.08;;
11984;SDS011;6052;53.246;10.368;2023-08-08T08:34:10;1.20;;;1.02;;
11984;SDS011;6052;53.246;10.368;2023-08-08T08:36:39;2.65;;;0.90;;
11984;SDS011;6052;53.246;10.368;2023-08-08T08:39:08;3.38;;;0.98;;
11984;SDS011;6052;53.246;10.368;2023-08-08T08:41:38;1.33;;;1.00;;
11984;SDS011;6052;53.246;10.368;2023-08-08T08:44:08;1.85;;;1.00;;
11984;SDS011;6052;53.246;10.368;2023-08-08T08:46:40;2.35;;;1.27;;
11984;SDS011;6052;53.246;10.368;2023-08-08T08:49:10;3.65;;;1.52;;
11984;SDS011;6052;53.246;10.368;2023-08-08T08:51:40;1.08;;;0.80;;
11984;SDS011;6052;53.246;10.368;2023-08-08T08:54:09;2.03;;;1.23;;
11984;SDS011;6052;53.246;10.368;2023-08-08T08:56:42;2.58;;;1.08;;
11984;SDS011;6052;53.246;10.368;2023-08-08T08:59:14;2.13;;;1.17;;
11984;SDS011;6052;53.246;10.368;2023-08-08T09:01:43;1.20;;;0.93;;
11984;SDS011;6052;53.246;10.368;2023-08-08T09:04:13;2.05;;;0.93;;
11984;SDS011;6052;53.246;10.368;2023-08-08T09:06:45;1.75;;;0.80;;
11984;SDS011;6052;53.246;10.368;2023-08-08T09:09:16;3.83;;;1.20;;
11984;SDS011;6052;53.246;10.368;2023-08-08T09:11:48;2.05;;;0.90;;
11984;SDS011;6052;53.246;10.368;2023-08-08T09:14:23;0.80;;;0.80;;
11984;SDS011;6052;53.246;10.368;2023-08-08T09:16:54;2.50;;;0.90;;
11984;SDS011;6052;53.246;10.368;2023-08-08T09:19:24;1.00;;;0.70;;
11984;SDS011;6052;53.246;10.368;2023-08-08T09:21:53;0.77;;;0.70;;
11984;SDS011;6052;53.246;10.368;2023-08-08T09:24:23;1.23;;;0.73;;
11984;SDS011;6052;53.246;10.368;2023-08-08T09:26:53;1.17;;;0.80;;
11984;SDS011;6052;53.246;10.368;2023-08-08T09:29:26;0.82;;;0.80;;
11984;SDS011;6052;53.246;10.368;2023-08-08T09:31:56;1.52;;;0.80;;
11984;SDS011;6052;53.246;10.368;2023-08-08T09:34:26;0.77;;;0.77;;
11984;SDS011;6052;53.246;10.368;2023-08-08T09:36:55;1.75;;;1.00;;
11984;SDS011;6052;53.246;10.368;2023-08-08T09:39:25;0.93;;;0.82;;
11984;SDS011;6052;53.246;10.368;2023-08-08T09:41:55;0.80;;;0.80;;
11984;SDS011;6052;53.246;10.368;2023-08-08T09:44:28;2.55;;;1.05;;
11984;SDS011;6052;53.246;10.368;2023-08-08T09:46:58;1.05;;;0.80;;
11984;SDS011;6052;53.246;10.368;2023-08-08T09:49:28;0.70;;;0.52;;
11984;SDS011;6052;53.246;10.368;2023-08-08T09:52:01;1.73;;;0.93;;
11984;SDS011;6052;53.246;10.368;2023-08-08T09:54:31;1.13;;;0.60;;
11984;SDS011;6052;53.246;10.368;2023-08-08T09:57:01;2.53;;;0.90;;
11984;SDS011;6052;53.246;10.368;2023-08-08T09:59:33;1.30;;;0.90;;
11984;SDS011;6052;53.246;10.368;2023-08-08T10:02:04;0.95;;;0.70;;
11984;SDS011;6052;53.246;10.368;2023-08-08T10:04:34;1.77;;;1.02;;
11984;SDS011;6052;53.246;10.368;2023-08-08T10:07:04;0.70;;;0.55;;
11984;SDS011;6052;53.246;10.368;2023-08-08T10:09:33;1.95;;;0.93;;
11984;SDS011;6052;53.246;10.368;2023-08-08T10:12:04;1.35;;;0.90;;
11984;SDS011;6052;53.246;10.368;2023-08-08T10:14:37;1.63;;;0.90;;
11984;SDS011;6052;53.246;10.368;2023-08-08T10:17:12;1.45;;;0.88;;
11984;SDS011;6052;53.246;10.368;2023-08-08T10:19:49;2.38;;;0.65;;
11984;SDS011;6052;53.246;10.368;2023-08-08T10:22:20;0.80;;;0.65;;
11984;SDS011;6052;53.246;10.368;2023-08-08T10:24:52;1.63;;;0.80;;
11984;SDS011;6052;53.246;10.368;2023-08-08T10:27:30;0.73;;;0.73;;
11984;SDS011;6052;53.246;10.368;2023-08-08T10:30:03;3.63;;;0.80;;
11984;SDS011;6052;53.246;10.368;2023-08-08T10:32:39;1.83;;;1.00;;
11984;SDS011;6052;53.246;10.368;2023-08-08T10:35:10;1.50;;;0.68;;
11984;SDS011;6052;53.246;10.368;2023-08-08T10:37:40;1.02;;;0.57;;
11984;SDS011;6052;53.246;10.368;2023-08-08T10:40:21;0.57;;;0.50;;
11984;SDS011;6052;53.246;10.368;2023-08-08T10:42:51;0.75;;;0.50;;
11984;SDS011;6052;53.246;10.368;2023-08-08T10:45:28;2.47;;;0.60;;
11984;SDS011;6052;53.246;10.368;2023-08-08T10:48:06;0.90;;;0.70;;
11984;SDS011;6052;53.246;10.368;2023-08-08T10:50:38;0.55;;;0.50;;
11984;SDS011;6052;53.246;10.368;2023-08-08T10:53:09;1.85;;;0.60;;
11984;SDS011;6052;53.246;10.368;2023-08-08T10:55:39;0.57;;;0.40;;
11984;SDS011;6052;53.246;10.368;2023-08-08T10:58:10;1.75;;;0.75;;
11984;SDS011;6052;53.246;10.368;2023-08-08T11:00:48;0.60;;;0.60;;
11984;SDS011;6052;53.246;10.368;2023-08-08T11:03:20;0.95;;;0.65;;
11984;SDS011;6052;53.246;10.368;2023-08-08T11:05:50;0.50;;;0.50;;
11984;SDS011;6052;53.246;10.368;2023-08-08T11:08:21;1.52;;;0.50;;
11984;SDS011;6052;53.246;10.368;2023-08-08T11:10:52;0.85;;;0.60;;
11984;SDS011;6052;53.246;10.368;2023-08-08T11:13:21;0.40;;;0.40;;
11984;SDS011;6052;53.246;10.368;2023-08-08T11:15:53;0.82;;;0.40;;
11984;SDS011;6052;53.246;10.368;2023-08-08T11:18:23;0.50;;;0.50;;
11984;SDS011;6052;53.246;10.368;2023-08-08T11:20:54;0.65;;;0.50;;
11984;SDS011;6052;53.246;10.368;2023-08-08T11:23:44;1.27;;;0.73;;
11984;SDS011;6052;53.246;10.368;2023-08-08T11:26:16;2.13;;;0.80;;
11984;SDS011;6052;53.246;10.368;2023-08-08T11:28:50;1.90;;;0.80;;
11984;SDS011;6052;53.246;10.368;2023-08-08T11:31:22;0.63;;;0.63;;
11984;SDS011;6052;53.246;10.368;2023-08-08T11:33:53;0.63;;;0.50;;
11984;SDS011;6052;53.246;10.368;2023-08-08T11:36:23;0.88;;;0.57;;
11984;SDS011;6052;53.246;10.368;2023-08-08T11:38:52;0.80;;;0.60;;
11984;SDS011;6052;53.246;10.368;2023-08-08T11:41:23;0.82;;;0.70;;
11984;SDS011;6052;53.246;10.368;2023-08-08T11:43:53;2.05;;;0.70;;
11984;SDS011;6052;53.246;10.368;2023-08-08T11:46:25;2.50;;;0.60;;
11984;SDS011;6052;53.246;10.368;2023-08-08T11:49:01;1.13;;;0.73;;
11984;SDS011;6052;53.246;10.368;2023-08-08T11:51:33;1.17;;;0.70;;
11984;SDS011;6052;53.246;10.368;2023-08-08T11:54:03;1.02;;;0.88;;
11984;SDS011;6052;53.246;10.368;2023-08-08T11:56:33;2.22;;;0.85;;
11984;SDS011;6052;53.246;10.368;2023-08-08T11:59:04;1.30;;;0.75;;
11984;SDS011;6052;53.246;10.368;2023-08-08T12:01:37;0.60;;;0.60;;
11984;SDS011;6052;53.246;10.368;2023-08-08T12:04:07;2.47;;;0.60;;
11984;SDS011;6052;53.246;10.368;2023-08-08T12:06:37;2.92;;;0.98;;
11984;SDS011;6052;53.246;10.368;2023-08-08T12:09:10;2.13;;;1.20;;
11984;SDS011;6052;53.246;10.368;2023-08-08T12:11:41;1.75;;;1.10;;
11984;SDS011;6052;53.246;10.368;2023-08-08T12:14:11;0.95;;;0.60;;
11984;SDS011;6052;53.246;10.368;2023-08-08T12:16:44;1.00;;;0.90;;
11984;SDS011;6052;53.246;10.368;2023-08-08T12:19:14;3.97;;;1.08;;
11984;SDS011;6052;53.246;10.368;2023-08-08T12:21:47;3.45;;;0.55;;
11984;SDS011;6052;53.246;10.368;2023-08-08T12:24:17;2.17;;;0.90;;
11984;SDS011;6052;53.246;10.368;2023-08-08T12:26:47;1.00;;;0.77;;
11984;SDS011;6052;53.246;10.368;2023-08-08T12:29:16;0.82;;;0.70;;
11984;SDS011;6052;53.246;10.368;2023-08-08T12:31:48;1.27;;;0.73;;
11984;SDS011;6052;53.246;10.368;2023-08-08T12:34:18;2.20;;;0.73;;
11984;SDS011;6052;53.246;10.368;2023-08-08T12:36:47;0.90;;;0.80;;
11984;SDS011;6052;53.246;10.368;2023-08-08T12:39:17;1.02;;;0.90;;
11984;SDS011;6052;53.246;10.368;2023-08-08T12:41:46;0.77;;;0.60;;
11984;SDS011;6052;53.246;10.368;2023-08-08T12:44:15;2.35;;;0.80;;
11984;SDS011;6052;53.246;10.368;2023-08-08T12:46:45;1.85;;;1.05;;
11984;SDS011;6052;53.246;10.368;2023-08-08T12:49:17;1.38;;;0.75;;
11984;SDS011;6052;53.246;10.368;2023-08-08T12:51:47;1.95;;;0.90;;
11984;SDS011;6052;53.246;10.368;2023-08-08T12:54:16;1.65;;;0.73;;
11984;SDS011;6052;53.246;10.368;2023-08-08T12:56:45;0.60;;;0.60;;
11984;SDS011;6052;53.246;10.368;2023-08-08T12:59:15;0.63;;;0.63;;
11984;SDS011;6052;53.246;10.368;2023-08-08T13:01:44;0.95;;;0.75;;
11984;SDS011;6052;53.246;10.368;2023-08-08T13:04:14;0.73;;;0.63;;
11984;SDS011;6052;53.246;10.368;2023-08-08T13:06:48;0.50;;;0.50;;
11984;SDS011;6052;53.246;10.368;2023-08-08T13:09:17;0.93;;;0.63;;
11984;SDS011;6052;53.246;10.368;2023-08-08T13:11:46;1.42;;;0.80;;
11984;SDS011;6052;53.246;10.368;2023-08-08T13:14:16;0.75;;;0.65;;
11984;SDS011;6052;53.246;10.368;2023-08-08T13:16:45;0.50;;;0.50;;
11984;SDS011;6052;53.246;10.368;2023-08-08T13:19:15;1.90;;;0.68;;
11984;SDS011;6052;53.246;10.368;2023-08-08T13:21:50;3.00;;;0.70;;
11984;SDS011;6052;53.246;10.368;2023-08-08T13:24:20;0.63;;;0.63;;
11984;SDS011;6052;53.246;10.368;2023-08-08T13:26:50;1.15;;;0.47;;
11984;SDS011;6052;53.246;10.368;2023-08-08T13:29:19;1.15;;;0.70;;
11984;SDS011;6052;53.246;10.368;2023-08-08T13:31:48;1.40;;;0.60;;
11984;SDS011;6052;53.246;10.368;2023-08-08T13:34:18;2.42;;;0.95;;
11984;SDS011;6052;53.246;10.368;2023-08-08T13:36:50;0.90;;;0.47;;
11984;SDS011;6052;53.246;10.368;2023-08-08T13:39:19;1.70;;;0.90;;
11984;SDS011;6052;53.246;10.368;2023-08-08T13:41:49;1.00;;;0.68;;
11984;SDS011;6052;53.246;10.368;2023-08-08T13:44:19;1.52;;;0.77;;
11984;SDS011;6052;53.246;10.368;2023-08-08T13:46:48;1.25;;;0.60;;
11984;SDS011;6052;53.246;10.368;2023-08-08T13:49:17;0.98;;;0.55;;
11984;SDS011;6052;53.246;10.368;2023-08-08T13:51:49;0.95;;;0.60;;
11984;SDS011;6052;53.246;10.368;2023-08-08T13:54:20;0.55;;;0.50;;
11984;SDS011;6052;53.246;10.368;2023-08-08T13:56:49;0.80;;;0.47;;
11984;SDS011;6052;53.246;10.368;2023-08-08T13:59:18;1.35;;;0.60;;
11984;SDS011;6052;53.246;10.368;2023-08-08T14:01:48;1.40;;;0.73;;
11984;SDS011;6052;53.246;10.368;2023-08-08T14:04:17;1.00;;;0.60;;
11984;SDS011;6052;53.246;10.368;2023-08-08T14:06:49;5.40;;;0.80;;
11984;SDS011;6052;53.246;10.368;2023-08-08T14:09:19;3.00;;;0.65;;
11984;SDS011;6052;53.246;10.368;2023-08-08T14:11:49;0.80;;;0.70;;
11984;SDS011;6052;53.246;10.368;2023-08-08T14:14:18;1.13;;;0.80;;
11984;SDS011;6052;53.246;10.368;2023-08-08T14:16:48;3.60;;;0.60;;
11984;SDS011;6052;53.246;10.368;2023-08-08T14:19:19;1.45;;;0.90;;
11984;SDS011;6052;53.246;10.368;2023-08-08T14:21:51;0.50;;;0.50;;
11984;SDS011;6052;53.246;10.368;2023-08-08T14:24:20;1.88;;;0.70;;
11984;SDS011;6052;53.246;10.368;2023-08-08T14:26:49;2.05;;;0.77;;
11984;SDS011;6052;53.246;10.368;2023-08-08T14:29:19;1.27;;;0.65;;
11984;SDS011;6052;53.246;10.368;2023-08-08T14:31:48;1.67;;;0.60;;
11984;SDS011;6052;53.246;10.368;2023-08-08T14:34:29;1.20;;;0.60;;
11984;SDS011;6052;53.246;10.368;2023-08-08T14:37:01;0.75;;;0.40;;
11984;SDS011;6052;53.246;10.368;2023-08-08T14:39:31;5.47;;;1.10;;
11984;SDS011;6052;53.246;10.368;2023-08-08T14:42:00;3.08;;;0.80;;
11984;SDS011;6052;53.246;10.368;2023-08-08T14:44:30;0.75;;;0.70;;
11984;SDS011;6052;53.246;10.368;2023-08-08T14:47:00;1.10;;;0.80;;
11984;SDS011;6052;53.246;10.368;2023-08-08T14:49:30;1.25;;;0.50;;
11984;SDS011;6052;53.246;10.368;2023-08-08T14:52:02;1.00;;;0.70;;
11984;SDS011;6052;53.246;10.368;2023-08-08T14:54:31;1.30;;;0.73;;
11984;SDS011;6052;53.246;10.368;2023-08-08T14:57:01;2.33;;;1.00;;
11984;SDS011;6052;53.246;10.368;2023-08-08T14:59:30;1.25;;;0.80;;
11984;SDS011;6052;53.246;10.368;2023-08-08T15:01:59;1.05;;;0.70;;
11984;SDS011;6052;53.246;10.368;2023-08-08T15:04:29;1.90;;;0.80;;
11984;SDS011;6052;53.246;10.368;2023-08-08T15:07:01;2.67;;;0.63;;
11984;SDS011;6052;53.246;10.368;2023-08-08T15:09:31;2.80;;;1.10;;